Katmai National Park, AK

8:46 AM AKDT on September 02, 2014 (GMT -0800)
King Salmon | Change Station
CLOSE
Current Station
Airport
Location: King Salmon,
Elevation: 46 ft
Nearby Weather Stations

Elev 46 ft 58.68 °N, 156.66 °W | Updated 52 minutes ago

Overcast
Overcast
52 °F
Feels Like 52 °F
N
14
Wind Variable Wind from SSW
Gusts 23 mph

Today
High -- | Low -- °F
--% Chance of Precip.
Yesterday
High -- | Low -- °F
Precip. -- in
7:27 AM 9:23 PM
First Quarter, 53% visible
Pressure 30.06 in
Visibility 10.0 miles
Clouds Few 600 ft
Overcast 2500 ft
Dew Point 52 °F
Humidity 100%
Rainfall 0.05 in
Snow Depth Not available.
UV 0 out of 12
Pollen Not available.
Air Quality Not available.
Flu Activity Not available.
METAR PAKN 021554Z 21012G20KT 10SM FEW006 OVC025 11/11 A3006 RMK AO2 RAE1455 SLP180 P0000 T01110111

More Conditions Fewer Conditions

Pressure 30.06 in
Visibility 10.0 miles
Clouds Few 600 ft
Overcast 2500 ft
Dew Point 52 °F
Humidity 100%
Rainfall 0.05 in
Snow Depth Not available.
UV 0 out of 12
Pollen Not available.
Air Quality Not available.
Flu Activity Not available.
METAR PAKN 021554Z 21012G20KT 10SM FEW006 OVC025 11/11 A3006 RMK AO2 RAE1455 SLP180 P0000 T01110111

More Conditions Fewer Conditions

10-Day Weather Forecast

Almanac

Astronomy

Sep. 02, 2014 Rise Set
Actual Time 7:27 AM AKDT 9:23 PM AKDT
Civil Twilight 6:44 AM AKDT 10:05 PM AKDT
Nautical Twilight 5:50 AM AKDT 10:59 PM AKDT
Astronomical Twilight 4:43 AM AKDT 12:05 AM AKDT
Moon 5:02 PM AKDT 12:00 AM AKDT
Length of Visible Light 15h 20m
Length of Day
13h 55m
Tomorrow will be 5m 5s shorter.
First Quarter, 53% of the Moon is Illuminated
Today
First Quarter
Sep 8
Full
Sep 15
Last Quarter
Sep 24
New
Oct 1
First Quarter

Today's Extremes

State Highs State Lows

Community

WunderPhotos

Upload Photos

1,749,716 photos uploaded!

WunderBlogs® & News

Nearby

Snow Depth

Station Depth Elevation
Port Graham 0 in 300 ft
Mcneil Canyon 1 in 1320 ft
MF Bradley River 1 in 2300 ft
Nuka Glacier 25 in 1250 ft
Cooper Lake 8 in 1200 ft

Earthquake Activity

City Distance Mag. Time & Date
No recent earthquake activity has been reported nearby.
Minimum magnitude displayed is 2.5.

Coastal Water Temperatures

Place Temperature
No Stations Reporting

Nearby Weather Stations